Aviation Digital Data Service (ADDS)

Output produced by METARs form (2331 UTC 26 February 2020)
found at http://www.aviationweather.gov/metar/data/
 
METAR text: OJAI 262300Z 00000KT 0000 FG NSC 04/04 Q1023 NOSIG
Conditions at: OJAI (QUEEN ALIA INTL , JO) observed 2300 UTC 26 February 2020
Temperature: 4.0°C (39°F)
Dewpoint: 4.0°C (39°F) [RH = 100%]
Pressure (altimeter): 30.21 inches Hg (1023.0 mb)
Winds: calm
Visibility: 0.00 miles (0.00 km)
Ceiling: at least 12,000 feet AGL
Clouds: sky clear below 12,000 feet AGL
Weather: FG  (fog)

METAR text: OJAI 262200Z 00000KT 0000 FG NSC 05/05 Q1023 NOSIG
Conditions at: OJAI (QUEEN ALIA INTL , JO) observed 2200 UTC 26 February 2020
Temperature: 5.0°C (41°F)
Dewpoint: 5.0°C (41°F) [RH = 100%]
Pressure (altimeter): 30.21 inches Hg (1023.0 mb)
Winds: calm
Visibility: 0.00 miles (0.00 km)
Ceiling: at least 12,000 feet AGL
Clouds: sky clear below 12,000 feet AGL
Weather: FG  (fog)

METAR text: OJAI 262130Z 05003KT 0100 FG NSC 05/05 Q1023 NOSIG
Conditions at: OJAI (QUEEN ALIA INTL , JO) observed 2130 UTC 26 February 2020
Temperature: 5.0°C (41°F)
Dewpoint: 5.0°C (41°F) [RH = 100%]
Pressure (altimeter): 30.21 inches Hg (1023.0 mb)
Winds: from the NE (50 degrees) at 3 MPH (3 knots; 1.5 m/s)
Visibility: 0.06 miles (0.10 km)
Ceiling: at least 12,000 feet AGL
Clouds: sky clear below 12,000 feet AGL
Weather: FG  (fog)

METAR text: OJAI 262100Z 19003KT 0800 FG NSC 05/05 Q1023 NOSIG
Conditions at: OJAI (QUEEN ALIA INTL , JO) observed 2100 UTC 26 February 2020
Temperature: 5.0°C (41°F)
Dewpoint: 5.0°C (41°F) [RH = 100%]
Pressure (altimeter): 30.21 inches Hg (1023.0 mb)
Winds: from the S (190 degrees) at 3 MPH (3 knots; 1.5 m/s)
Visibility: 0.50 miles (0.80 km)
Ceiling: at least 12,000 feet AGL
Clouds: sky clear below 12,000 feet AGL
Weather: FG  (fog)

METAR text: OJAI 262033Z 01003KT 0800 FG NSC 06/06 Q1023 NOSIG
Conditions at: OJAI (QUEEN ALIA INTL , JO) observed 2033 UTC 26 February 2020
Temperature: 6.0°C (43°F)
Dewpoint: 6.0°C (43°F) [RH = 100%]
Pressure (altimeter): 30.21 inches Hg (1023.0 mb)
Winds: from the N (10 degrees) at 3 MPH (3 knots; 1.5 m/s)
Visibility: 0.50 miles (0.80 km)
Ceiling: at least 12,000 feet AGL
Clouds: sky clear below 12,000 feet AGL
Weather: FG  (fog)

METAR text: OJAI 262000Z 01003KT 5000 BR FEW018 SCT025 08/07 Q1023 NOSIG
Conditions at: OJAI (QUEEN ALIA INTL , JO) observed 2000 UTC 26 February 2020
Temperature: 8.0°C (46°F)
Dewpoint: 7.0°C (45°F) [RH = 93%]
Pressure (altimeter): 30.21 inches Hg (1023.0 mb)
Winds: from the N (10 degrees) at 3 MPH (3 knots; 1.5 m/s)
Visibility: 3 miles ( 5 km)
Ceiling: at least 12,000 feet AGL
Clouds: few clouds at 1800 feet AGL
scattered clouds at 2500 feet AGL
Weather: BR  (mist)

METAR text: OJAI 261900Z 32002KT 5000 BR FEW018 SCT025 08/07 Q1023 NOSIG
Conditions at: OJAI (QUEEN ALIA INTL , JO) observed 1900 UTC 26 February 2020
Temperature: 8.0°C (46°F)
Dewpoint: 7.0°C (45°F) [RH = 93%]
Pressure (altimeter): 30.21 inches Hg (1023.0 mb)
Winds: from the NW (320 degrees) at 2 MPH (2 knots; 1.0 m/s)
Visibility: 3 miles ( 5 km)
Ceiling: at least 12,000 feet AGL
Clouds: few clouds at 1800 feet AGL
scattered clouds at 2500 feet AGL
Weather: BR  (mist)

METAR text: OJAI 261800Z 00000KT 5000 BR FEW018 08/07 Q1023 NOSIG
Conditions at: OJAI (QUEEN ALIA INTL , JO) observed 1800 UTC 26 February 2020
Temperature: 8.0°C (46°F)
Dewpoint: 7.0°C (45°F) [RH = 93%]
Pressure (altimeter): 30.21 inches Hg (1023.0 mb)
Winds: calm
Visibility: 3 miles ( 5 km)
Ceiling: at least 12,000 feet AGL
Clouds: few clouds at 1800 feet AGL
Weather: BR  (mist)

METAR text: OJAI 261700Z 28004KT 5000 BR NSC 10/08 Q1022 NOSIG
Conditions at: OJAI (QUEEN ALIA INTL , JO) observed 1700 UTC 26 February 2020
Temperature: 10.0°C (50°F)
Dewpoint: 8.0°C (46°F) [RH = 87%]
Pressure (altimeter): 30.18 inches Hg (1022.0 mb)
Winds: from the W (280 degrees) at 5 MPH (4 knots; 2.1 m/s)
Visibility: 3 miles ( 5 km)
Ceiling: at least 12,000 feet AGL
Clouds: sky clear below 12,000 feet AGL
Weather: BR  (mist)

METAR text: OJAI 261600Z 29006KT 4000 BR FEW030 10/08 Q1022 NOSIG
Conditions at: OJAI (QUEEN ALIA INTL , JO) observed 1600 UTC 26 February 2020
Temperature: 10.0°C (50°F)
Dewpoint: 8.0°C (46°F) [RH = 87%]
Pressure (altimeter): 30.18 inches Hg (1022.0 mb)
Winds: from the WNW (290 degrees) at 7 MPH (6 knots; 3.1 m/s)
Visibility: 2.49 miles (4.01 km)
Ceiling: at least 12,000 feet AGL
Clouds: few clouds at 3000 feet AGL
Weather: BR  (mist)

METAR text: OJAI 261500Z 26011KT 5000 HZ FEW030TCU SCT035 12/07 Q1021 NOSIG
Conditions at: OJAI (QUEEN ALIA INTL , JO) observed 1500 UTC 26 February 2020
Temperature: 12.0°C (54°F)
Dewpoint: 7.0°C (45°F) [RH = 71%]
Pressure (altimeter): 30.15 inches Hg (1021.0 mb)
Winds: from the W (260 degrees) at 13 MPH (11 knots; 5.7 m/s)
Visibility: 3 miles ( 5 km)
Ceiling: at least 12,000 feet AGL
Clouds: few clouds at 3000 feet AGL
scattered clouds at 3500 feet AGL
Weather: HZ  (haze)

METAR text: OJAI 261400Z 26015KT 5000 HZ SCT030 BKN035 15/09 Q1021 NOSIG
Conditions at: OJAI (QUEEN ALIA INTL , JO) observed 1400 UTC 26 February 2020
Temperature: 15.0°C (59°F)
Dewpoint: 9.0°C (48°F) [RH = 67%]
Pressure (altimeter): 30.15 inches Hg (1021.0 mb)
Winds: from the W (260 degrees) at 17 MPH (15 knots; 7.7 m/s)
Visibility: 3 miles ( 5 km)
Ceiling: 3500 feet AGL
Clouds: scattered clouds at 3000 feet AGL
broken clouds at 3500 feet AGL
Weather: HZ  (haze)

METAR text: OJAI 261300Z 22019KT 5000 HZ SCT030 SCT035 13/07 Q1021 NOSIG
Conditions at: OJAI (QUEEN ALIA INTL , JO) observed 1300 UTC 26 February 2020
Temperature: 13.0°C (55°F)
Dewpoint: 7.0°C (45°F) [RH = 67%]
Pressure (altimeter): 30.15 inches Hg (1021.0 mb)
Winds: from the SW (220 degrees) at 22 MPH (19 knots; 9.8 m/s)
Visibility: 3 miles ( 5 km)
Ceiling: at least 12,000 feet AGL
Clouds: scattered clouds at 3000 feet AGL
scattered clouds at 3500 feet AGL
Weather: HZ  (haze)

METAR text: OJAI 261200Z 27013KT 5000 HZ SCT030 SCT035 13/07 Q1021 NOSIG
Conditions at: OJAI (QUEEN ALIA INTL , JO) observed 1200 UTC 26 February 2020
Temperature: 13.0°C (55°F)
Dewpoint: 7.0°C (45°F) [RH = 67%]
Pressure (altimeter): 30.15 inches Hg (1021.0 mb)
Winds: from the W (270 degrees) at 15 MPH (13 knots; 6.7 m/s)
Visibility: 3 miles ( 5 km)
Ceiling: at least 12,000 feet AGL
Clouds: scattered clouds at 3000 feet AGL
scattered clouds at 3500 feet AGL
Weather: HZ  (haze)

METAR text: OJAI 261100Z 26017KT 5000 BLDU SCT030 SCT035 14/07 Q1021 NOSIG
Conditions at: OJAI (QUEEN ALIA INTL , JO) observed 1100 UTC 26 February 2020
Temperature: 14.0°C (57°F)
Dewpoint: 7.0°C (45°F) [RH = 63%]
Pressure (altimeter): 30.15 inches Hg (1021.0 mb)
Winds: from the W (260 degrees) at 20 MPH (17 knots; 8.7 m/s)
Visibility: 3 miles ( 5 km)
Ceiling: at least 12,000 feet AGL
Clouds: scattered clouds at 3000 feet AGL
scattered clouds at 3500 feet AGL
Weather: BLDU  (blowing dust)

METAR text: OJAI 261000Z 28014KT 5000 HZ SCT030 BKN035 13/08 Q1022 NOSIG
Conditions at: OJAI (QUEEN ALIA INTL , JO) observed 1000 UTC 26 February 2020
Temperature: 13.0°C (55°F)
Dewpoint: 8.0°C (46°F) [RH = 72%]
Pressure (altimeter): 30.18 inches Hg (1022.0 mb)
Winds: from the W (280 degrees) at 16 MPH (14 knots; 7.2 m/s)
Visibility: 3 miles ( 5 km)
Ceiling: 3500 feet AGL
Clouds: scattered clouds at 3000 feet AGL
broken clouds at 3500 feet AGL
Weather: HZ  (haze)

METAR text: OJAI 260900Z 27014KT 5000 HZ SCT030 BKN035 13/08 Q1022 NOSIG
Conditions at: OJAI (QUEEN ALIA INTL , JO) observed 0900 UTC 26 February 2020
Temperature: 13.0°C (55°F)
Dewpoint: 8.0°C (46°F) [RH = 72%]
Pressure (altimeter): 30.18 inches Hg (1022.0 mb)
Winds: from the W (270 degrees) at 16 MPH (14 knots; 7.2 m/s)
Visibility: 3 miles ( 5 km)
Ceiling: 3500 feet AGL
Clouds: scattered clouds at 3000 feet AGL
broken clouds at 3500 feet AGL
Weather: HZ  (haze)

METAR text: OJAI 260800Z 25013KT 5000 BR SCT030 BKN035 12/09 Q1022 NOSIG
Conditions at: OJAI (QUEEN ALIA INTL , JO) observed 0800 UTC 26 February 2020
Temperature: 12.0°C (54°F)
Dewpoint: 9.0°C (48°F) [RH = 82%]
Pressure (altimeter): 30.18 inches Hg (1022.0 mb)
Winds: from the WSW (250 degrees) at 15 MPH (13 knots; 6.7 m/s)
Visibility: 3 miles ( 5 km)
Ceiling: 3500 feet AGL
Clouds: scattered clouds at 3000 feet AGL
broken clouds at 3500 feet AGL
Weather: BR  (mist)

METAR text: OJAI 260700Z 27012KT 5000 BR SCT030 BKN035 11/07 Q1021 NOSIG
Conditions at: OJAI (QUEEN ALIA INTL , JO) observed 0700 UTC 26 February 2020
Temperature: 11.0°C (52°F)
Dewpoint: 7.0°C (45°F) [RH = 76%]
Pressure (altimeter): 30.15 inches Hg (1021.0 mb)
Winds: from the W (270 degrees) at 14 MPH (12 knots; 6.2 m/s)
Visibility: 3 miles ( 5 km)
Ceiling: 3500 feet AGL
Clouds: scattered clouds at 3000 feet AGL
broken clouds at 3500 feet AGL
Weather: BR  (mist)

METAR text: OJAI 260600Z 27010KT 4000 BR SCT030 BKN035 09/07 Q1020 NOSIG
Conditions at: OJAI (QUEEN ALIA INTL , JO) observed 0600 UTC 26 February 2020
Temperature: 9.0°C (48°F)
Dewpoint: 7.0°C (45°F) [RH = 87%]
Pressure (altimeter): 30.12 inches Hg (1020.0 mb)
Winds: from the W (270 degrees) at 12 MPH (10 knots; 5.1 m/s)
Visibility: 2.49 miles (4.01 km)
Ceiling: 3500 feet AGL
Clouds: scattered clouds at 3000 feet AGL
broken clouds at 3500 feet AGL
Weather: BR  (mist)

METAR text: OJAI 260500Z 26008KT 3000 BR SCT030 BKN035 08/07 Q1019 NOSIG
Conditions at: OJAI (QUEEN ALIA INTL , JO) observed 0500 UTC 26 February 2020
Temperature: 8.0°C (46°F)
Dewpoint: 7.0°C (45°F) [RH = 93%]
Pressure (altimeter): 30.09 inches Hg (1019.0 mb)
Winds: from the W (260 degrees) at 9 MPH (8 knots; 4.1 m/s)
Visibility: 1.86 miles (2.99 km)
Ceiling: 3500 feet AGL
Clouds: scattered clouds at 3000 feet AGL
broken clouds at 3500 feet AGL
Weather: BR  (mist)

METAR text: OJAI 260400Z 24011KT 5000 BR SCT030 BKN035 08/07 Q1019 NOSIG
Conditions at: OJAI (QUEEN ALIA INTL , JO) observed 0400 UTC 26 February 2020
Temperature: 8.0°C (46°F)
Dewpoint: 7.0°C (45°F) [RH = 93%]
Pressure (altimeter): 30.09 inches Hg (1019.0 mb)
Winds: from the WSW (240 degrees) at 13 MPH (11 knots; 5.7 m/s)
Visibility: 3 miles ( 5 km)
Ceiling: 3500 feet AGL
Clouds: scattered clouds at 3000 feet AGL
broken clouds at 3500 feet AGL
Weather: BR  (mist)

METAR text: OJAI 260300Z 24012KT 5000 BR SCT030 BKN035 08/07 Q1019 NOSIG
Conditions at: OJAI (QUEEN ALIA INTL , JO) observed 0300 UTC 26 February 2020
Temperature: 8.0°C (46°F)
Dewpoint: 7.0°C (45°F) [RH = 93%]
Pressure (altimeter): 30.09 inches Hg (1019.0 mb)
Winds: from the WSW (240 degrees) at 14 MPH (12 knots; 6.2 m/s)
Visibility: 3 miles ( 5 km)
Ceiling: 3500 feet AGL
Clouds: scattered clouds at 3000 feet AGL
broken clouds at 3500 feet AGL
Weather: BR  (mist)

METAR text: OJAI 260200Z 25012KT 5000 BR SCT030 BKN035 08/07 Q1019 NOSIG
Conditions at: OJAI (QUEEN ALIA INTL , JO) observed 0200 UTC 26 February 2020
Temperature: 8.0°C (46°F)
Dewpoint: 7.0°C (45°F) [RH = 93%]
Pressure (altimeter): 30.09 inches Hg (1019.0 mb)
Winds: from the WSW (250 degrees) at 14 MPH (12 knots; 6.2 m/s)
Visibility: 3 miles ( 5 km)
Ceiling: 3500 feet AGL
Clouds: scattered clouds at 3000 feet AGL
broken clouds at 3500 feet AGL
Weather: BR  (mist)

METAR text: OJAI 260100Z 26012KT 5000 BR SCT030 BKN035 08/07 Q1018 NOSIG
Conditions at: OJAI (QUEEN ALIA INTL , JO) observed 0100 UTC 26 February 2020
Temperature: 8.0°C (46°F)
Dewpoint: 7.0°C (45°F) [RH = 93%]
Pressure (altimeter): 30.06 inches Hg (1018.0 mb)
Winds: from the W (260 degrees) at 14 MPH (12 knots; 6.2 m/s)
Visibility: 3 miles ( 5 km)
Ceiling: 3500 feet AGL
Clouds: scattered clouds at 3000 feet AGL
broken clouds at 3500 feet AGL
Weather: BR  (mist)

METAR text: OJAI 260000Z 26010KT 5000 BR SCT030 BKN035 08/07 Q1018 NOSIG
Conditions at: OJAI (QUEEN ALIA INTL , JO) observed 0000 UTC 26 February 2020
Temperature: 8.0°C (46°F)
Dewpoint: 7.0°C (45°F) [RH = 93%]
Pressure (altimeter): 30.06 inches Hg (1018.0 mb)
Winds: from the W (260 degrees) at 12 MPH (10 knots; 5.1 m/s)
Visibility: 3 miles ( 5 km)
Ceiling: 3500 feet AGL
Clouds: scattered clouds at 3000 feet AGL
broken clouds at 3500 feet AGL
Weather: BR  (mist)

METAR text: OJAI 252300Z 26007KT 6000 SCT030 BKN035 08/07 Q1018 NOSIG
Conditions at: OJAI (QUEEN ALIA INTL , JO) observed 2300 UTC 25 February 2020
Temperature: 8.0°C (46°F)
Dewpoint: 7.0°C (45°F) [RH = 93%]
Pressure (altimeter): 30.06 inches Hg (1018.0 mb)
Winds: from the W (260 degrees) at 8 MPH (7 knots; 3.6 m/s)
Visibility: 4 miles ( 6 km)
Ceiling: 3500 feet AGL
Clouds: scattered clouds at 3000 feet AGL
broken clouds at 3500 feet AGL
Weather: no significant weather observed at this time

METAR text: OJAI 252200Z 23007KT 6000 SCT030 SCT035 08/07 Q1018 NOSIG
Conditions at: OJAI (QUEEN ALIA INTL , JO) observed 2200 UTC 25 February 2020
Temperature: 8.0°C (46°F)
Dewpoint: 7.0°C (45°F) [RH = 93%]
Pressure (altimeter): 30.06 inches Hg (1018.0 mb)
Winds: from the SW (230 degrees) at 8 MPH (7 knots; 3.6 m/s)
Visibility: 4 miles ( 6 km)
Ceiling: at least 12,000 feet AGL
Clouds: scattered clouds at 3000 feet AGL
scattered clouds at 3500 feet AGL
Weather: no significant weather observed at this time

METAR text: OJAI 252100Z 24008KT 6000 SCT030 SCT035 09/07 Q1018 NOSIG
Conditions at: OJAI (QUEEN ALIA INTL , JO) observed 2100 UTC 25 February 2020
Temperature: 9.0°C (48°F)
Dewpoint: 7.0°C (45°F) [RH = 87%]
Pressure (altimeter): 30.06 inches Hg (1018.0 mb)
Winds: from the WSW (240 degrees) at 9 MPH (8 knots; 4.1 m/s)
Visibility: 4 miles ( 6 km)
Ceiling: at least 12,000 feet AGL
Clouds: scattered clouds at 3000 feet AGL
scattered clouds at 3500 feet AGL
Weather: no significant weather observed at this time

METAR text: OJAI 252000Z 26015KT 6000 FEW030 09/07 Q1018 NOSIG
Conditions at: OJAI (QUEEN ALIA INTL , JO) observed 2000 UTC 25 February 2020
Temperature: 9.0°C (48°F)
Dewpoint: 7.0°C (45°F) [RH = 87%]
Pressure (altimeter): 30.06 inches Hg (1018.0 mb)
Winds: from the W (260 degrees) at 17 MPH (15 knots; 7.7 m/s)
Visibility: 4 miles ( 6 km)
Ceiling: at least 12,000 feet AGL
Clouds: few clouds at 3000 feet AGL
Weather: no significant weather observed at this time

METAR text: OJAI 251900Z 26004KT 6000 FEW030 08/06 Q1017 NOSIG
Conditions at: OJAI (QUEEN ALIA INTL , JO) observed 1900 UTC 25 February 2020
Temperature: 8.0°C (46°F)
Dewpoint: 6.0°C (43°F) [RH = 87%]
Pressure (altimeter): 30.03 inches Hg (1017.0 mb)
Winds: from the W (260 degrees) at 5 MPH (4 knots; 2.1 m/s)
Visibility: 4 miles ( 6 km)
Ceiling: at least 12,000 feet AGL
Clouds: few clouds at 3000 feet AGL
Weather: no significant weather observed at this time

METAR text: OJAI 251800Z 24010KT 6000 FEW030 08/07 Q1017 NOSIG
Conditions at: OJAI (QUEEN ALIA INTL , JO) observed 1800 UTC 25 February 2020
Temperature: 8.0°C (46°F)
Dewpoint: 7.0°C (45°F) [RH = 93%]
Pressure (altimeter): 30.03 inches Hg (1017.0 mb)
Winds: from the WSW (240 degrees) at 12 MPH (10 knots; 5.1 m/s)
Visibility: 4 miles ( 6 km)
Ceiling: at least 12,000 feet AGL
Clouds: few clouds at 3000 feet AGL
Weather: no significant weather observed at this time

METAR text: OJAI 251700Z 25010KT 6000 FEW030 08/08 Q1016 NOSIG
Conditions at: OJAI (QUEEN ALIA INTL , JO) observed 1700 UTC 25 February 2020
Temperature: 8.0°C (46°F)
Dewpoint: 8.0°C (46°F) [RH = 100%]
Pressure (altimeter): 30.00 inches Hg (1016.0 mb)
Winds: from the WSW (250 degrees) at 12 MPH (10 knots; 5.1 m/s)
Visibility: 4 miles ( 6 km)
Ceiling: at least 12,000 feet AGL
Clouds: few clouds at 3000 feet AGL
Weather: no significant weather observed at this time

METAR text: OJAI 251610Z 26015KT 5000 BR FEW015 BKN030TCU SCT035 09/07 Q1015 NOSIG
Conditions at: OJAI (QUEEN ALIA INTL , JO) observed 1610 UTC 25 February 2020
Temperature: 9.0°C (48°F)
Dewpoint: 7.0°C (45°F) [RH = 87%]
Pressure (altimeter): 29.97 inches Hg (1015.0 mb)
Winds: from the W (260 degrees) at 17 MPH (15 knots; 7.7 m/s)
Visibility: 3 miles ( 5 km)
Ceiling: 3000 feet AGL
Clouds: few clouds at 1500 feet AGL
broken clouds at 3000 feet AGL
scattered clouds at 3500 feet AGL
Weather: BR  (mist)

METAR text: OJAI 251600Z 26015KT 2000 BR SCT015 BKN030TCU BKN035 09/07 Q1015 NOSIG
Conditions at: OJAI (QUEEN ALIA INTL , JO) observed 1600 UTC 25 February 2020
Temperature: 9.0°C (48°F)
Dewpoint: 7.0°C (45°F) [RH = 87%]
Pressure (altimeter): 29.97 inches Hg (1015.0 mb)
Winds: from the W (260 degrees) at 17 MPH (15 knots; 7.7 m/s)
Visibility: 1.24 miles (2.00 km)
Ceiling: 3000 feet AGL
Clouds: scattered clouds at 1500 feet AGL
broken clouds at 3000 feet AGL
broken clouds at 3500 feet AGL
Weather: BR  (mist)

METAR text: OJAI 251500Z 26015KT 2000 -DZ SCT015 BKN030 BKN035 10/08 Q1015 NOSIG
Conditions at: OJAI (QUEEN ALIA INTL , JO) observed 1500 UTC 25 February 2020
Temperature: 10.0°C (50°F)
Dewpoint: 8.0°C (46°F) [RH = 87%]
Pressure (altimeter): 29.97 inches Hg (1015.0 mb)
Winds: from the W (260 degrees) at 17 MPH (15 knots; 7.7 m/s)
Visibility: 1.24 miles (2.00 km)
Ceiling: 3000 feet AGL
Clouds: scattered clouds at 1500 feet AGL
broken clouds at 3000 feet AGL
broken clouds at 3500 feet AGL
Weather: -DZ  (light drizzle)

METAR text: OJAI 251400Z 27018KT 2000 RA SCT015 BKN030 BKN035 09/08 Q1014 NOSIG
Conditions at: OJAI (QUEEN ALIA INTL , JO) observed 1400 UTC 25 February 2020
Temperature: 9.0°C (48°F)
Dewpoint: 8.0°C (46°F) [RH = 93%]
Pressure (altimeter): 29.94 inches Hg (1014.0 mb)
Winds: from the W (270 degrees) at 21 MPH (18 knots; 9.3 m/s)
Visibility: 1.24 miles (2.00 km)
Ceiling: 3000 feet AGL
Clouds: scattered clouds at 1500 feet AGL
broken clouds at 3000 feet AGL
broken clouds at 3500 feet AGL
Weather: RA  (moderate rain)

METAR text: OJAI 251300Z 28015KT 2000 RA SCT015 OVC030 10/08 Q1013 NOSIG
Conditions at: OJAI (QUEEN ALIA INTL , JO) observed 1300 UTC 25 February 2020
Temperature: 10.0°C (50°F)
Dewpoint: 8.0°C (46°F) [RH = 87%]
Pressure (altimeter): 29.91 inches Hg (1013.0 mb)
Winds: from the W (280 degrees) at 17 MPH (15 knots; 7.7 m/s)
Visibility: 1.24 miles (2.00 km)
Ceiling: 3000 feet AGL
Clouds: scattered clouds at 1500 feet AGL
overcast cloud deck at 3000 feet AGL
Weather: RA  (moderate rain)

METAR text: OJAI 251240Z 28018KT 2000 +RA SCT015 BKN030 BKN035 10/08 Q1013 NOSIG
Conditions at: OJAI (QUEEN ALIA INTL , JO) observed 1240 UTC 25 February 2020
Temperature: 10.0°C (50°F)
Dewpoint: 8.0°C (46°F) [RH = 87%]
Pressure (altimeter): 29.91 inches Hg (1013.0 mb)
Winds: from the W (280 degrees) at 21 MPH (18 knots; 9.3 m/s)
Visibility: 1.24 miles (2.00 km)
Ceiling: 3000 feet AGL
Clouds: scattered clouds at 1500 feet AGL
broken clouds at 3000 feet AGL
broken clouds at 3500 feet AGL
Weather: +RA  (heavy rain)

METAR text: OJAI 251230Z 26015KT 3000 RA SCT015 BKN030 BKN035 10/08 Q1013 NOSIG
Conditions at: OJAI (QUEEN ALIA INTL , JO) observed 1230 UTC 25 February 2020
Temperature: 10.0°C (50°F)
Dewpoint: 8.0°C (46°F) [RH = 87%]
Pressure (altimeter): 29.91 inches Hg (1013.0 mb)
Winds: from the W (260 degrees) at 17 MPH (15 knots; 7.7 m/s)
Visibility: 1.86 miles (2.99 km)
Ceiling: 3000 feet AGL
Clouds: scattered clouds at 1500 feet AGL
broken clouds at 3000 feet AGL
broken clouds at 3500 feet AGL
Weather: RA  (moderate rain)

METAR text: OJAI 251200Z 26020KT 4000 BLDU SCT015 BKN030 BKN035 11/07 Q1013 NOSIG
Conditions at: OJAI (QUEEN ALIA INTL , JO) observed 1200 UTC 25 February 2020
Temperature: 11.0°C (52°F)
Dewpoint: 7.0°C (45°F) [RH = 76%]
Pressure (altimeter): 29.91 inches Hg (1013.0 mb)
Winds: from the W (260 degrees) at 23 MPH (20 knots; 10.3 m/s)
Visibility: 2.49 miles (4.01 km)
Ceiling: 3000 feet AGL
Clouds: scattered clouds at 1500 feet AGL
broken clouds at 3000 feet AGL
broken clouds at 3500 feet AGL
Weather: BLDU  (blowing dust)

Forecast for: OJAI (QUEEN ALIA INTL , JO)
Text: TAF OJAI 262250Z 2700/2806 VRB02KT 0200 FG SCT015
Forecast period: 0000 to 0700 UTC 27 February 2020
Forecast type: FROM: standard forecast or significant change
Winds: variable direction winds at 2 MPH (2 knots; 1.0 m/s)
Visibility: 0.12 miles (0.19 km)
Ceiling: at least 12,000 feet AGL
Clouds: scattered clouds at 1500 feet AGL
Weather: FG  (fog)
Text: BECMG 2707/2709 16008KT 4000 HZ NSC
Forecast period: 0700 UTC 27 February 2020 to 0600 UTC 28 February 2020
Forecast type: BECOMING: Conditions expected to become as follows by 0900 UTC 27 February 2020
Winds: from the SSE (160 degrees) at 9 MPH (8 knots; 4.1 m/s)
Visibility: 2.49 miles (4.01 km)
Ceiling: unknown
Clouds: missing
Weather: HZ  (haze)